sensor_id;sensor_type;location;lat;lon;timestamp;temperature;humidity
7248;DHT22;3665;51.034;13.642;2023-08-07T00:02:30;13.70;99.90
7248;DHT22;3665;51.034;13.642;2023-08-07T00:07:16;13.70;99.90
7248;DHT22;3665;51.034;13.642;2023-08-07T00:12:05;13.70;99.90
7248;DHT22;3665;51.034;13.642;2023-08-07T00:16:55;13.70;99.90
7248;DHT22;3665;51.034;13.642;2023-08-07T00:21:40;13.60;99.90
7248;DHT22;3665;51.034;13.642;2023-08-07T00:26:28;13.70;99.90
7248;DHT22;3665;51.034;13.642;2023-08-07T00:31:16;13.70;99.90
7248;DHT22;3665;51.034;13.642;2023-08-07T00:36:06;13.70;99.90
7248;DHT22;3665;51.034;13.642;2023-08-07T00:40:51;13.70;99.90
7248;DHT22;3665;51.034;13.642;2023-08-07T00:45:46;13.70;99.90
7248;DHT22;3665;51.034;13.642;2023-08-07T00:50:47;13.70;99.90
7248;DHT22;3665;51.034;13.642;2023-08-07T00:55:31;13.70;99.90
7248;DHT22;3665;51.034;13.642;2023-08-07T01:00:21;13.80;99.90
7248;DHT22;3665;51.034;13.642;2023-08-07T01:05:10;13.80;99.90
7248;DHT22;3665;51.034;13.642;2023-08-07T01:09:59;13.70;99.90
7248;DHT22;3665;51.034;13.642;2023-08-07T01:15:03;13.70;99.90
7248;DHT22;3665;51.034;13.642;2023-08-07T01:31:38;13.60;99.90
7248;DHT22;3665;51.034;13.642;2023-08-07T01:47:17;13.60;99.90
7248;DHT22;3665;51.034;13.642;2023-08-07T01:52:06;13.60;99.90
7248;DHT22;3665;51.034;13.642;2023-08-07T01:56:52;13.60;99.90
7248;DHT22;3665;51.034;13.642;2023-08-07T02:01:37;13.70;99.90
7248;DHT22;3665;51.034;13.642;2023-08-07T02:06:33;13.70;99.90
7248;DHT22;3665;51.034;13.642;2023-08-07T02:11:16;13.70;99.90
7248;DHT22;3665;51.034;13.642;2023-08-07T02:16:06;13.80;99.90
7248;DHT22;3665;51.034;13.642;2023-08-07T02:20:53;13.80;99.90
7248;DHT22;3665;51.034;13.642;2023-08-07T02:25:40;13.90;99.90
7248;DHT22;3665;51.034;13.642;2023-08-07T02:30:50;13.80;99.90
7248;DHT22;3665;51.034;13.642;2023-08-07T02:35:41;13.80;99.90
7248;DHT22;3665;51.034;13.642;2023-08-07T02:41:01;13.90;99.90
7248;DHT22;3665;51.034;13.642;2023-08-07T02:45:56;13.80;99.90
7248;DHT22;3665;51.034;13.642;2023-08-07T02:50:43;13.80;99.90
7248;DHT22;3665;51.034;13.642;2023-08-07T02:55:31;13.70;99.90
7248;DHT22;3665;51.034;13.642;2023-08-07T03:00:22;13.70;99.90
7248;DHT22;3665;51.034;13.642;2023-08-07T03:05:08;13.70;99.90
7248;DHT22;3665;51.034;13.642;2023-08-07T03:09:58;13.60;99.90
7248;DHT22;3665;51.034;13.642;2023-08-07T03:14:44;13.60;99.90
7248;DHT22;3665;51.034;13.642;2023-08-07T03:19:33;13.60;99.90
7248;DHT22;3665;51.034;13.642;2023-08-07T03:24:20;13.60;99.90
7248;DHT22;3665;51.034;13.642;2023-08-07T03:29:09;13.50;99.90
7248;DHT22;3665;51.034;13.642;2023-08-07T03:33:54;13.60;99.90
7248;DHT22;3665;51.034;13.642;2023-08-07T03:38:46;13.50;99.90
7248;DHT22;3665;51.034;13.642;2023-08-07T03:43:34;13.50;99.90
7248;DHT22;3665;51.034;13.642;2023-08-07T03:48:20;13.50;99.90
7248;DHT22;3665;51.034;13.642;2023-08-07T03:53:11;13.50;99.90
7248;DHT22;3665;51.034;13.642;2023-08-07T03:58:04;13.40;99.90
7248;DHT22;3665;51.034;13.642;2023-08-07T04:03:00;13.50;99.90
7248;DHT22;3665;51.034;13.642;2023-08-07T04:07:48;13.50;99.90
7248;DHT22;3665;51.034;13.642;2023-08-07T04:12:41;13.50;99.90
7248;DHT22;3665;51.034;13.642;2023-08-07T04:17:26;13.50;99.90
7248;DHT22;3665;51.034;13.642;2023-08-07T04:22:13;13.50;99.90
7248;DHT22;3665;51.034;13.642;2023-08-07T04:27:00;13.50;99.90
7248;DHT22;3665;51.034;13.642;2023-08-07T04:31:47;13.60;99.90
7248;DHT22;3665;51.034;13.642;2023-08-07T04:36:35;13.70;99.90
7248;DHT22;3665;51.034;13.642;2023-08-07T04:41:45;13.70;99.90
7248;DHT22;3665;51.034;13.642;2023-08-07T04:46:30;13.70;99.90
7248;DHT22;3665;51.034;13.642;2023-08-07T04:51:18;13.70;99.90
7248;DHT22;3665;51.034;13.642;2023-08-07T04:56:05;13.80;99.90
7248;DHT22;3665;51.034;13.642;2023-08-07T05:00:56;13.80;99.90
7248;DHT22;3665;51.034;13.642;2023-08-07T05:06:13;13.90;99.90
7248;DHT22;3665;51.034;13.642;2023-08-07T05:11:02;14.00;99.90
7248;DHT22;3665;51.034;13.642;2023-08-07T05:15:48;14.10;99.90
7248;DHT22;3665;51.034;13.642;2023-08-07T05:20:51;14.10;99.90
7248;DHT22;3665;51.034;13.642;2023-08-07T05:25:41;14.10;99.90
7248;DHT22;3665;51.034;13.642;2023-08-07T05:30:37;14.10;99.90
7248;DHT22;3665;51.034;13.642;2023-08-07T05:35:34;14.20;99.90
7248;DHT22;3665;51.034;13.642;2023-08-07T05:40:24;14.30;99.90
7248;DHT22;3665;51.034;13.642;2023-08-07T05:45:08;14.40;99.90
7248;DHT22;3665;51.034;13.642;2023-08-07T05:50:30;14.60;99.90
7248;DHT22;3665;51.034;13.642;2023-08-07T05:55:39;14.60;99.90
7248;DHT22;3665;51.034;13.642;2023-08-07T06:01:12;14.70;99.90
7248;DHT22;3665;51.034;13.642;2023-08-07T06:06:29;14.90;99.90
7248;DHT22;3665;51.034;13.642;2023-08-07T06:11:33;14.90;99.90
7248;DHT22;3665;51.034;13.642;2023-08-07T06:16:22;15.00;99.90
7248;DHT22;3665;51.034;13.642;2023-08-07T06:21:32;14.90;99.90
7248;DHT22;3665;51.034;13.642;2023-08-07T06:26:49;15.10;99.90
7248;DHT22;3665;51.034;13.642;2023-08-07T06:31:32;15.00;99.90
7248;DHT22;3665;51.034;13.642;2023-08-07T06:36:43;15.10;99.90
7248;DHT22;3665;51.034;13.642;2023-08-07T06:42:00;15.30;99.90
7248;DHT22;3665;51.034;13.642;2023-08-07T06:47:08;15.30;99.90
7248;DHT22;3665;51.034;13.642;2023-08-07T06:59:21;16.10;99.90
7248;DHT22;3665;51.034;13.642;2023-08-07T07:15:33;15.90;99.90
7248;DHT22;3665;51.034;13.642;2023-08-07T07:20:36;15.80;99.90
7248;DHT22;3665;51.034;13.642;2023-08-07T07:25:23;16.00;99.90
7248;DHT22;3665;51.034;13.642;2023-08-07T07:30:47;16.30;99.90
7248;DHT22;3665;51.034;13.642;2023-08-07T07:35:31;16.70;99.90
7248;DHT22;3665;51.034;13.642;2023-08-07T07:40:19;17.00;99.90
7248;DHT22;3665;51.034;13.642;2023-08-07T07:45:13;17.10;99.90
7248;DHT22;3665;51.034;13.642;2023-08-07T07:50:12;17.10;99.90
7248;DHT22;3665;51.034;13.642;2023-08-07T07:55:01;16.40;99.90
7248;DHT22;3665;51.034;13.642;2023-08-07T07:59:50;16.90;58.20
7248;DHT22;3665;51.034;13.642;2023-08-07T08:04:36;17.10;13.00
7248;DHT22;3665;51.034;13.642;2023-08-07T08:09:28;17.80;1.00
7248;DHT22;3665;51.034;13.642;2023-08-07T08:14:16;18.20;1.00
7248;DHT22;3665;51.034;13.642;2023-08-07T08:19:17;18.30;1.00
7248;DHT22;3665;51.034;13.642;2023-08-07T08:24:12;18.40;1.00
7248;DHT22;3665;51.034;13.642;2023-08-07T08:29:09;18.40;1.00
7248;DHT22;3665;51.034;13.642;2023-08-07T08:33:59;17.90;1.00
7248;DHT22;3665;51.034;13.642;2023-08-07T08:39:01;17.60;1.00
7248;DHT22;3665;51.034;13.642;2023-08-07T08:43:51;17.70;1.00
7248;DHT22;3665;51.034;13.642;2023-08-07T08:48:39;18.10;1.00
7248;DHT22;3665;51.034;13.642;2023-08-07T08:53:25;18.10;1.00
7248;DHT22;3665;51.034;13.642;2023-08-07T08:58:20;18.30;1.00
7248;DHT22;3665;51.034;13.642;2023-08-07T09:03:16;18.00;1.00
7248;DHT22;3665;51.034;13.642;2023-08-07T09:08:27;17.60;1.00
7248;DHT22;3665;51.034;13.642;2023-08-07T09:13:24;17.60;1.00
7248;DHT22;3665;51.034;13.642;2023-08-07T09:18:14;17.60;1.00
7248;DHT22;3665;51.034;13.642;2023-08-07T09:22:59;18.20;1.00
7248;DHT22;3665;51.034;13.642;2023-08-07T09:28:07;19.10;1.00
7248;DHT22;3665;51.034;13.642;2023-08-07T09:32:53;19.50;1.00
7248;DHT22;3665;51.034;13.642;2023-08-07T09:37:43;19.20;1.00
7248;DHT22;3665;51.034;13.642;2023-08-07T09:42:30;19.10;1.00
7248;DHT22;3665;51.034;13.642;2023-08-07T09:47:17;18.30;1.00
7248;DHT22;3665;51.034;13.642;2023-08-07T09:52:05;17.80;1.00
7248;DHT22;3665;51.034;13.642;2023-08-07T09:57:10;18.00;1.00
7248;DHT22;3665;51.034;13.642;2023-08-07T10:02:01;18.60;1.00
7248;DHT22;3665;51.034;13.642;2023-08-07T10:06:47;18.20;1.00
7248;DHT22;3665;51.034;13.642;2023-08-07T10:11:38;17.90;1.00
7248;DHT22;3665;51.034;13.642;2023-08-07T10:16:22;17.90;1.00
7248;DHT22;3665;51.034;13.642;2023-08-07T10:21:10;18.30;1.00
7248;DHT22;3665;51.034;13.642;2023-08-07T10:25:59;18.20;1.00
7248;DHT22;3665;51.034;13.642;2023-08-07T10:31:02;17.80;1.00
7248;DHT22;3665;51.034;13.642;2023-08-07T10:35:49;16.40;2.50
7248;DHT22;3665;51.034;13.642;2023-08-07T10:41:02;16.00;86.10
7248;DHT22;3665;51.034;13.642;2023-08-07T10:45:51;16.80;99.90
7248;DHT22;3665;51.034;13.642;2023-08-07T10:50:57;17.60;28.90
7248;DHT22;3665;51.034;13.642;2023-08-07T10:55:49;17.00;14.50
7248;DHT22;3665;51.034;13.642;2023-08-07T11:01:14;16.90;6.30
7248;DHT22;3665;51.034;13.642;2023-08-07T11:06:33;18.00;1.00
7248;DHT22;3665;51.034;13.642;2023-08-07T11:11:36;18.30;1.00
7248;DHT22;3665;51.034;13.642;2023-08-07T11:16:27;19.00;1.00
7248;DHT22;3665;51.034;13.642;2023-08-07T11:21:13;19.50;1.00
7248;DHT22;3665;51.034;13.642;2023-08-07T11:26:00;19.90;1.00
7248;DHT22;3665;51.034;13.642;2023-08-07T11:30:46;20.60;1.00
7248;DHT22;3665;51.034;13.642;2023-08-07T11:35:49;21.00;1.00
7248;DHT22;3665;51.034;13.642;2023-08-07T11:40:38;20.90;1.00
7248;DHT22;3665;51.034;13.642;2023-08-07T11:45:44;20.20;1.00
7248;DHT22;3665;51.034;13.642;2023-08-07T11:50:29;19.30;1.00
7248;DHT22;3665;51.034;13.642;2023-08-07T11:55:34;18.20;1.00
7248;DHT22;3665;51.034;13.642;2023-08-07T12:01:18;18.00;1.00
7248;DHT22;3665;51.034;13.642;2023-08-07T12:06:15;17.50;1.00
7248;DHT22;3665;51.034;13.642;2023-08-07T12:11:17;18.00;1.00
7248;DHT22;3665;51.034;13.642;2023-08-07T12:16:06;18.10;1.00
7248;DHT22;3665;51.034;13.642;2023-08-07T12:20:57;19.00;1.00
7248;DHT22;3665;51.034;13.642;2023-08-07T12:25:51;18.60;1.00
7248;DHT22;3665;51.034;13.642;2023-08-07T12:30:48;18.50;1.00
7248;DHT22;3665;51.034;13.642;2023-08-07T12:35:34;18.30;1.00
7248;DHT22;3665;51.034;13.642;2023-08-07T12:40:22;18.00;1.00
7248;DHT22;3665;51.034;13.642;2023-08-07T12:45:13;18.20;1.00
7248;DHT22;3665;51.034;13.642;2023-08-07T12:50:02;18.40;1.00
7248;DHT22;3665;51.034;13.642;2023-08-07T12:54:46;19.10;1.00
7248;DHT22;3665;51.034;13.642;2023-08-07T12:59:54;19.70;1.00
7248;DHT22;3665;51.034;13.642;2023-08-07T13:04:39;19.00;1.00
7248;DHT22;3665;51.034;13.642;2023-08-07T13:09:42;18.30;1.00
7248;DHT22;3665;51.034;13.642;2023-08-07T13:14:31;18.00;1.00
7248;DHT22;3665;51.034;13.642;2023-08-07T13:19:17;18.30;1.00
7248;DHT22;3665;51.034;13.642;2023-08-07T13:24:10;18.80;1.00
7248;DHT22;3665;51.034;13.642;2023-08-07T13:28:55;19.10;1.00
7248;DHT22;3665;51.034;13.642;2023-08-07T13:33:43;19.60;1.00
7248;DHT22;3665;51.034;13.642;2023-08-07T13:38:29;19.80;1.00
7248;DHT22;3665;51.034;13.642;2023-08-07T13:43:23;19.30;1.00
7248;DHT22;3665;51.034;13.642;2023-08-07T13:48:09;18.90;1.00
7248;DHT22;3665;51.034;13.642;2023-08-07T13:52:56;18.70;1.00
7248;DHT22;3665;51.034;13.642;2023-08-07T13:58:01;19.00;1.00
7248;DHT22;3665;51.034;13.642;2023-08-07T14:02:46;18.50;1.00
7248;DHT22;3665;51.034;13.642;2023-08-07T14:07:41;18.10;1.00
7248;DHT22;3665;51.034;13.642;2023-08-07T14:18:35;16.00;24.50
7248;DHT22;3665;51.034;13.642;2023-08-07T14:23:24;15.60;99.90
7248;DHT22;3665;51.034;13.642;2023-08-07T14:28:46;15.50;99.90
7248;DHT22;3665;51.034;13.642;2023-08-07T14:33:42;15.80;99.90
7248;DHT22;3665;51.034;13.642;2023-08-07T14:38:52;16.10;1.00
7248;DHT22;3665;51.034;13.642;2023-08-07T14:43:36;16.60;99.90
7248;DHT22;3665;51.034;13.642;2023-08-07T14:48:21;16.90;99.90
7248;DHT22;3665;51.034;13.642;2023-08-07T14:53:12;17.30;1.00
7248;DHT22;3665;51.034;13.642;2023-08-07T14:58:04;17.60;1.00
7248;DHT22;3665;51.034;13.642;2023-08-07T15:03:21;17.50;1.00
7248;DHT22;3665;51.034;13.642;2023-08-07T15:08:07;17.20;1.00
7248;DHT22;3665;51.034;13.642;2023-08-07T15:12:55;16.70;1.00
7248;DHT22;3665;51.034;13.642;2023-08-07T15:17:44;16.30;33.70
7248;DHT22;3665;51.034;13.642;2023-08-07T15:22:32;15.90;99.90
7248;DHT22;3665;51.034;13.642;2023-08-07T15:33:00;16.00;99.90
7248;DHT22;3665;51.034;13.642;2023-08-07T15:38:01;15.90;99.90
7248;DHT22;3665;51.034;13.642;2023-08-07T15:43:04;16.10;99.90
7248;DHT22;3665;51.034;13.642;2023-08-07T15:48:13;16.40;99.90
7248;DHT22;3665;51.034;13.642;2023-08-07T15:53:10;16.20;53.50
7248;DHT22;3665;51.034;13.642;2023-08-07T15:57:58;15.90;55.80
7248;DHT22;3665;51.034;13.642;2023-08-07T16:02:47;15.50;99.90
7248;DHT22;3665;51.034;13.642;2023-08-07T16:07:34;14.40;99.90
7248;DHT22;3665;51.034;13.642;2023-08-07T16:12:28;13.70;1.00
7248;DHT22;3665;51.034;13.642;2023-08-07T16:17:12;13.40;93.50
7248;DHT22;3665;51.034;13.642;2023-08-07T16:21:57;13.50;64.90
7248;DHT22;3665;51.034;13.642;2023-08-07T16:27:03;13.90;99.90
7248;DHT22;3665;51.034;13.642;2023-08-07T16:54:19;15.00;99.90
7248;DHT22;3665;51.034;13.642;2023-08-07T16:59:04;14.90;99.90
7248;DHT22;3665;51.034;13.642;2023-08-07T17:03:56;14.80;99.90
7248;DHT22;3665;51.034;13.642;2023-08-07T17:14:17;14.40;99.90
7248;DHT22;3665;51.034;13.642;2023-08-07T17:19:03;14.40;99.90
7248;DHT22;3665;51.034;13.642;2023-08-07T17:23:46;14.30;1.00
7248;DHT22;3665;51.034;13.642;2023-08-07T17:28:30;14.30;99.90
7248;DHT22;3665;51.034;13.642;2023-08-07T17:33:28;14.30;1.00
7248;DHT22;3665;51.034;13.642;2023-08-07T17:38:14;13.90;1.00
7248;DHT22;3665;51.034;13.642;2023-08-07T17:54:03;13.50;98.20
7248;DHT22;3665;51.034;13.642;2023-08-07T18:00:13;13.30;1.00
7248;DHT22;3665;51.034;13.642;2023-08-07T18:22:02;13.30;14.00
7248;DHT22;3665;51.034;13.642;2023-08-07T18:26:46;13.20;99.90
7248;DHT22;3665;51.034;13.642;2023-08-07T18:43:19;13.00;1.00
7248;DHT22;3665;51.034;13.642;2023-08-07T18:48:08;12.90;1.00
7248;DHT22;3665;51.034;13.642;2023-08-07T18:52:56;12.70;99.90
7248;DHT22;3665;51.034;13.642;2023-08-07T18:57:42;12.60;1.00
7248;DHT22;3665;51.034;13.642;2023-08-07T19:02:39;12.60;99.90
7248;DHT22;3665;51.034;13.642;2023-08-07T19:07:27;12.40;99.90
7248;DHT22;3665;51.034;13.642;2023-08-07T19:12:22;12.40;99.90
7248;DHT22;3665;51.034;13.642;2023-08-07T19:17:11;12.40;99.90
7248;DHT22;3665;51.034;13.642;2023-08-07T19:21:58;12.30;99.90
7248;DHT22;3665;51.034;13.642;2023-08-07T19:26:48;12.30;99.90
7248;DHT22;3665;51.034;13.642;2023-08-07T19:31:33;12.20;99.90
7248;DHT22;3665;51.034;13.642;2023-08-07T19:36:22;12.10;99.90
7248;DHT22;3665;51.034;13.642;2023-08-07T19:41:09;12.00;99.90
7248;DHT22;3665;51.034;13.642;2023-08-07T19:45:57;12.00;99.90
7248;DHT22;3665;51.034;13.642;2023-08-07T19:50:47;11.90;99.90
7248;DHT22;3665;51.034;13.642;2023-08-07T19:55:34;11.90;1.00
7248;DHT22;3665;51.034;13.642;2023-08-07T20:05:43;12.20;1.00
7248;DHT22;3665;51.034;13.642;2023-08-07T20:10:33;12.30;99.90
7248;DHT22;3665;51.034;13.642;2023-08-07T20:15:20;12.30;99.90
7248;DHT22;3665;51.034;13.642;2023-08-07T20:20:07;12.40;99.90
7248;DHT22;3665;51.034;13.642;2023-08-07T20:25:00;12.40;1.00
7248;DHT22;3665;51.034;13.642;2023-08-07T20:29:50;12.40;99.90
7248;DHT22;3665;51.034;13.642;2023-08-07T20:34:46;12.40;99.90
7248;DHT22;3665;51.034;13.642;2023-08-07T20:39:32;12.40;1.00
7248;DHT22;3665;51.034;13.642;2023-08-07T20:44:29;12.50;1.00
7248;DHT22;3665;51.034;13.642;2023-08-07T20:54:31;12.70;99.90
7248;DHT22;3665;51.034;13.642;2023-08-07T20:59:17;12.70;1.00
7248;DHT22;3665;51.034;13.642;2023-08-07T21:04:25;12.70;21.50
7248;DHT22;3665;51.034;13.642;2023-08-07T21:09:41;12.70;1.00
7248;DHT22;3665;51.034;13.642;2023-08-07T21:14:31;12.70;1.00
7248;DHT22;3665;51.034;13.642;2023-08-07T21:19:18;12.60;6.90
7248;DHT22;3665;51.034;13.642;2023-08-07T21:24:29;12.60;29.50
7248;DHT22;3665;51.034;13.642;2023-08-07T21:29:31;12.70;30.20
7248;DHT22;3665;51.034;13.642;2023-08-07T21:34:16;12.60;78.40
7248;DHT22;3665;51.034;13.642;2023-08-07T21:39:04;12.60;99.90
7248;DHT22;3665;51.034;13.642;2023-08-07T21:43:51;12.60;99.90
7248;DHT22;3665;51.034;13.642;2023-08-07T21:48:37;12.60;99.90
7248;DHT22;3665;51.034;13.642;2023-08-07T21:53:27;12.70;99.90
7248;DHT22;3665;51.034;13.642;2023-08-07T21:58:15;12.70;99.90
7248;DHT22;3665;51.034;13.642;2023-08-07T22:03:03;12.70;99.90
7248;DHT22;3665;51.034;13.642;2023-08-07T22:07:53;12.70;99.90
7248;DHT22;3665;51.034;13.642;2023-08-07T22:12:39;12.70;99.90
7248;DHT22;3665;51.034;13.642;2023-08-07T22:17:27;12.60;99.90
7248;DHT22;3665;51.034;13.642;2023-08-07T22:22:17;12.50;99.90
7248;DHT22;3665;51.034;13.642;2023-08-07T22:27:03;12.50;99.90
7248;DHT22;3665;51.034;13.642;2023-08-07T22:31:53;12.50;99.90
7248;DHT22;3665;51.034;13.642;2023-08-07T22:36:39;12.40;99.90
7248;DHT22;3665;51.034;13.642;2023-08-07T22:41:28;12.50;99.90
7248;DHT22;3665;51.034;13.642;2023-08-07T22:46:16;12.30;99.90
7248;DHT22;3665;51.034;13.642;2023-08-07T22:51:02;12.10;99.90
7248;DHT22;3665;51.034;13.642;2023-08-07T22:55:53;11.90;99.90
7248;DHT22;3665;51.034;13.642;2023-08-07T23:00:39;11.90;99.90
7248;DHT22;3665;51.034;13.642;2023-08-07T23:05:26;12.00;99.90
7248;DHT22;3665;51.034;13.642;2023-08-07T23:10:16;12.10;99.90
7248;DHT22;3665;51.034;13.642;2023-08-07T23:15:02;12.10;99.90
7248;DHT22;3665;51.034;13.642;2023-08-07T23:19:50;12.00;99.90
7248;DHT22;3665;51.034;13.642;2023-08-07T23:24:43;11.90;99.90
7248;DHT22;3665;51.034;13.642;2023-08-07T23:29:27;11.80;1.00
7248;DHT22;3665;51.034;13.642;2023-08-07T23:34:23;11.70;1.00
7248;DHT22;3665;51.034;13.642;2023-08-07T23:39:19;11.60;1.00
7248;DHT22;3665;51.034;13.642;2023-08-07T23:44:06;11.60;1.00
7248;DHT22;3665;51.034;13.642;2023-08-07T23:48:55;11.60;99.90
7248;DHT22;3665;51.034;13.642;2023-08-07T23:53:43;11.60;99.90
7248;DHT22;3665;51.034;13.642;2023-08-07T23:58:31;11.50;99.90
